KRWL/RWL METAR and TAF weather

Enter ICAO airport designator
Station Type Date Time Source
KRWL METAR 2019/08/22 19:53 UTC NOAA

KRWL 221953Z AUTO 24011G22KT 10SM CLR 32/M06 A3001 RMK AO2 WSHFT 1856 SLP047 T03221056


Station Type Date Time Source
KRWL Decoded METAR 2019/08/22 19:53 UTC NOAA

Station name not available
Aug 22, 2019 - 03:53 PM EDT / 2019.08.22 1953 UTC
Wind: from the WSW (240 degrees) at 13 MPH (11 KT) gusting to 25 MPH (22 KT):0
Visibility: 10 mile(s):0
Sky conditions: clear
Temperature: 90.0 F (32.2 C)
Dew Point: 21.9 F (-5.6 C)
Relative Humidity: 8%
Pressure (altimeter): 30.01 in. Hg (1016 hPa)
ob: KRWL 221953Z AUTO 24011G22KT 10SM CLR 32/M06 A3001 RMK AO2 WSHFT 1856 SLP047 T03221056
cycle: 20

Station Type Date Time Source
KRWL TAF 2019/08/22 18:58 UTC NOAA

TAF KRWL 221756Z 2218/2318 24016G28KT P6SM FEW120
FM230200 26013KT P6SM SCT120
FM231000 32007KT P6SM SCT250

Example: see airport list